Seaside, Oregon
Current Conditions -  °F | °C
As of 8:55 PM on Wednesday 22 Oct 2014 (Local Time) from KAST Reporting Station
Light Rain Light Rain  
Wind Chill: 57°   Ceiling: 9500
Heat Index: 57°   Visibility: 10mi
Dew Point: 54°   Wind: 17mph
Humidity: 89%   Direction: 200°SSW
Pressure: 29.66"   Gusts: 25mph
Location:  45.99°N, 123.91°W
Report Text: KAST 230355Z AUTO 20015G22KT 10SM -RA FEW019 SCT070 BKN095 14/12 A2966 RMK AO2 PK WND 23030/0302 WSHFT 0257 CIG 070 RWY 08 SLP043 P0016 T01390122
Loading
Personal Weather Stations






























Interactive Weather Map
Tropical Storm Tracking
New forecast layout! Learn more

10-Day Weather Forecast

Advertisements
Track Severe Weather on mobile